Time;durP1;ratioP1;P1;durP2;ratioP2;P2;SDS_P1;SDS_P2;PMS_P1;PMS_P2;Temp;Humidity;BMP_temperature;BMP_pressure;BME280_temperature;BME280_humidity;BME280_pressure;Samples;Min_cycle;Max_cycle;Signal;HPM_P1;HPM_P2
2023/03/29 00:01:55;;;;;;;10.73;5.60;;;5.30;99.90;;;;;;5073543;28;20045;-79
2023/03/29 00:04:21;;;;;;;9.43;5.28;;;5.30;99.90;;;;;;5073886;28;20040;-79
2023/03/29 00:06:46;;;;;;;9.48;5.10;;;5.30;99.90;;;;;;5073816;28;20048;-79
2023/03/29 00:09:17;;;;;;;9.48;5.20;;;5.40;99.90;;;;;;5073882;28;20091;-79
2023/03/29 00:11:43;;;;;;;8.05;4.95;;;5.30;99.90;;;;;;5073851;28;20055;-79
2023/03/29 00:14:10;;;;;;;10.13;4.80;;;5.40;99.90;;;;;;5073331;28;20049;-79
2023/03/29 00:16:38;;;;;;;11.57;5.47;;;5.40;99.90;;;;;;5073614;28;20555;-79
2023/03/29 00:19:04;;;;;;;8.30;4.70;;;5.40;99.90;;;;;;5073550;28;20052;-79
2023/03/29 00:21:30;;;;;;;7.55;4.88;;;5.40;99.90;;;;;;5073211;28;20476;-79
2023/03/29 00:23:56;;;;;;;7.28;4.50;;;5.40;99.90;;;;;;5073551;28;20036;-79
2023/03/29 00:26:22;;;;;;;10.57;5.20;;;5.40;99.90;;;;;;5072828;28;20053;-79
2023/03/29 00:28:48;;;;;;;9.60;5.25;;;5.30;99.90;;;;;;5073159;28;20085;-79
2023/03/29 00:31:16;;;;;;;7.40;3.90;;;5.40;99.90;;;;;;5073034;28;20166;-79
2023/03/29 00:33:42;;;;;;;13.00;5.57;;;5.40;99.90;;;;;;5073139;28;20056;-79
2023/03/29 00:36:09;;;;;;;8.07;4.30;;;5.40;99.90;;;;;;5073259;28;20032;-79
2023/03/29 00:38:36;;;;;;;7.50;4.28;;;5.40;99.90;;;;;;5072840;28;20110;-79
2023/03/29 00:41:03;;;;;;;6.95;4.30;;;5.40;99.90;;;;;;5072752;28;20471;-79
2023/03/29 00:43:29;;;;;;;7.45;4.32;;;5.40;99.90;;;;;;5072811;28;20041;-79
2023/03/29 00:45:54;;;;;;;7.82;4.70;;;5.40;99.90;;;;;;5072839;28;20047;-79
2023/03/29 00:48:28;;;;;;;7.90;4.68;;;5.40;99.90;;;;;;5072648;28;20040;-79
2023/03/29 00:51:04;;;;;;;7.07;4.03;;;5.40;99.90;;;;;;5072800;28;20047;-79
2023/03/29 00:53:50;;;;;;;9.68;4.85;;;5.40;99.90;;;;;;5072942;28;20055;-79
2023/03/29 00:56:23;;;;;;;7.20;4.05;;;5.40;99.90;;;;;;5073944;28;20075;-79
2023/03/29 00:59:12;;;;;;;9.80;4.57;;;5.40;99.90;;;;;;5072585;28;20036;-79
2023/03/29 01:01:44;;;;;;;6.88;4.22;;;5.40;99.90;;;;;;5072548;28;20052;-79
2023/03/29 01:04:29;;;;;;;6.35;4.07;;;5.40;99.90;;;;;;5072926;28;20090;-79
2023/03/29 01:07:03;;;;;;;5.95;3.58;;;5.40;99.90;;;;;;5072284;28;20044;-79
2023/03/29 01:09:32;;;;;;;8.57;4.13;;;5.40;99.90;;;;;;5071926;28;20127;-79
2023/03/29 01:12:02;;;;;;;9.13;4.20;;;5.40;99.90;;;;;;5072424;28;20040;-79
2023/03/29 01:14:34;;;;;;;6.72;4.10;;;5.40;99.90;;;;;;5072365;28;20044;-79
2023/03/29 01:17:00;;;;;;;13.43;4.32;;;5.40;99.90;;;;;;5072429;28;20044;-79
2023/03/29 01:19:30;;;;;;;6.50;3.88;;;5.40;99.90;;;;;;5072383;28;20043;-79
2023/03/29 01:22:12;;;;;;;6.75;3.63;;;5.40;99.90;;;;;;5072501;28;20400;-79
2023/03/29 01:25:04;;;;;;;9.68;4.18;;;5.40;99.90;;;;;;5072292;28;20512;-79
2023/03/29 01:28:07;;;;;;;6.65;3.53;;;5.40;99.90;;;;;;5073514;28;20075;-79
2023/03/29 01:30:42;;;;;;;8.25;4.20;;;5.40;99.90;;;;;;5072117;28;20048;-79
2023/03/29 01:33:22;;;;;;;8.63;3.92;;;5.40;99.90;;;;;;5072483;28;20483;-79
2023/03/29 01:36:15;;;;;;;7.30;4.68;;;5.40;99.90;;;;;;5073835;28;20434;-79
2023/03/29 01:38:50;;;;;;;7.33;3.90;;;5.40;99.90;;;;;;5072009;28;20106;-79
2023/03/29 01:41:19;;;;;;;8.05;4.28;;;5.40;99.90;;;;;;5071908;28;20088;-79
2023/03/29 01:44:06;;;;;;;8.00;3.78;;;5.40;99.90;;;;;;5072178;28;20048;-79
2023/03/29 01:46:46;;;;;;;9.63;4.13;;;5.40;99.90;;;;;;5072420;28;20041;-79
2023/03/29 01:49:27;;;;;;;6.57;3.63;;;5.40;99.90;;;;;;5072144;28;20119;-79
2023/03/29 01:52:10;;;;;;;9.23;3.90;;;5.40;99.90;;;;;;5071948;28;20052;-79
2023/03/29 01:54:46;;;;;;;9.52;4.25;;;5.40;99.90;;;;;;5071913;28;20045;-79
2023/03/29 01:57:13;;;;;;;8.57;4.35;;;5.40;99.90;;;;;;5072072;28;20059;-79
2023/03/29 01:59:42;;;;;;;6.65;3.63;;;5.40;99.90;;;;;;5072115;28;20056;-79
2023/03/29 02:02:13;;;;;;;5.82;3.38;;;5.30;99.90;;;;;;5071776;28;20403;-79
2023/03/29 02:04:46;;;;;;;9.32;3.92;;;5.40;99.90;;;;;;5071839;28;20044;-78
2023/03/29 02:07:14;;;;;;;8.65;4.15;;;5.40;99.90;;;;;;5071992;28;20048;-78
2023/03/29 02:09:41;;;;;;;8.27;5.35;;;5.30;99.90;;;;;;5071928;28;20064;-79
2023/03/29 02:12:08;;;;;;;9.50;4.78;;;5.30;99.90;;;;;;5072272;28;20052;-78
2023/03/29 02:14:34;;;;;;;7.63;4.07;;;5.30;99.90;;;;;;5071884;28;20040;-79
2023/03/29 02:17:23;;;;;;;8.15;3.80;;;5.30;99.90;;;;;;5072050;28;20048;-79
2023/03/29 02:19:54;;;;;;;6.78;4.07;;;5.30;99.90;;;;;;5072008;28;20049;-78
2023/03/29 02:22:35;;;;;;;7.32;4.07;;;5.30;99.90;;;;;;5075186;28;20523;-79
2023/03/29 02:25:03;;;;;;;8.70;3.45;;;5.30;99.90;;;;;;5075913;28;20089;-78
2023/03/29 02:27:29;;;;;;;5.80;3.65;;;5.30;99.90;;;;;;5076616;28;20041;-79
2023/03/29 02:29:55;;;;;;;6.85;3.47;;;5.30;99.90;;;;;;5075314;28;20045;-79
2023/03/29 02:32:30;;;;;;;8.45;3.67;;;5.40;99.90;;;;;;5075395;28;20039;-79
2023/03/29 02:35:03;;;;;;;5.65;3.28;;;5.40;99.90;;;;;;5075422;28;20178;-79
2023/03/29 02:37:33;;;;;;;6.20;3.60;;;5.30;99.90;;;;;;5075481;28;20055;-79
2023/03/29 02:40:11;;;;;;;8.00;3.97;;;5.40;99.90;;;;;;5075410;28;20125;-79
2023/03/29 02:42:38;;;;;;;6.78;3.35;;;5.30;99.90;;;;;;5075079;28;20086;-79
2023/03/29 02:45:06;;;;;;;7.35;3.63;;;5.30;99.90;;;;;;5074965;28;20049;-79
2023/03/29 02:47:40;;;;;;;8.18;3.63;;;5.30;99.90;;;;;;5075007;28;20048;-79
2023/03/29 02:50:07;;;;;;;8.40;3.88;;;5.30;99.90;;;;;;5074986;28;20399;-79
2023/03/29 02:52:41;;;;;;;6.53;3.90;;;5.30;99.90;;;;;;5074974;28;20052;-79
2023/03/29 02:55:16;;;;;;;7.13;3.85;;;5.40;99.90;;;;;;5075005;28;20553;-79
2023/03/29 02:57:42;;;;;;;5.97;3.90;;;5.30;99.90;;;;;;5075075;28;20079;-79
2023/03/29 03:00:13;;;;;;;6.93;3.83;;;5.40;99.90;;;;;;5075278;28;20526;-79
2023/03/29 03:02:39;;;;;;;7.95;4.43;;;5.40;99.90;;;;;;5074868;28;20044;-79
2023/03/29 03:05:08;;;;;;;9.27;4.15;;;5.40;99.90;;;;;;5074851;28;20048;-79
2023/03/29 03:07:34;;;;;;;6.40;3.92;;;5.40;99.90;;;;;;5081719;22;20060;-79
2023/03/29 03:10:00;;;;;;;6.32;3.50;;;5.40;99.90;;;;;;5074643;28;20059;-79
2023/03/29 03:12:26;;;;;;;7.50;4.03;;;5.40;99.90;;;;;;5074721;28;20127;-79
2023/03/29 03:15:10;;;;;;;7.65;4.30;;;5.40;99.90;;;;;;5074491;28;20177;-79
2023/03/29 03:17:38;;;;;;;8.50;3.85;;;5.40;99.90;;;;;;5074553;28;20055;-79
2023/03/29 03:20:09;;;;;;;8.13;4.10;;;5.40;99.90;;;;;;5074913;28;20067;-79
2023/03/29 03:22:50;;;;;;;7.00;3.95;;;5.40;99.90;;;;;;5073753;28;20408;-79
2023/03/29 03:25:18;;;;;;;11.82;5.07;;;5.50;99.90;;;;;;5074407;28;20040;-79
2023/03/29 03:28:01;;;;;;;8.20;4.22;;;5.50;99.90;;;;;;5075197;28;20049;-79
2023/03/29 03:30:27;;;;;;;8.07;3.90;;;5.50;99.90;;;;;;5074389;28;20048;-79
2023/03/29 03:32:53;;;;;;;8.02;3.90;;;5.50;99.90;;;;;;5073471;28;20040;-79
2023/03/29 03:35:28;;;;;;;8.07;4.53;;;5.50;99.90;;;;;;5074220;28;20130;-79
2023/03/29 03:37:54;;;;;;;8.98;4.20;;;5.50;99.90;;;;;;5074112;28;20053;-79
2023/03/29 03:40:20;;;;;;;10.35;4.45;;;5.50;99.90;;;;;;5074323;28;20051;-79
2023/03/29 03:42:46;;;;;;;8.77;4.43;;;5.50;99.90;;;;;;5075601;28;20053;-79
2023/03/29 03:45:30;;;;;;;8.80;4.43;;;5.50;99.90;;;;;;5074309;28;20094;-79
2023/03/29 03:47:56;;;;;;;7.10;4.35;;;5.50;99.90;;;;;;5074390;28;20044;-79
2023/03/29 03:50:22;;;;;;;8.65;3.95;;;5.50;99.90;;;;;;5074268;28;20440;-79
2023/03/29 03:52:47;;;;;;;8.43;4.72;;;5.50;99.90;;;;;;5074035;28;20044;-79
2023/03/29 03:55:13;;;;;;;11.43;5.10;;;5.60;99.90;;;;;;5073985;28;20361;-79
2023/03/29 03:57:48;;;;;;;6.70;4.25;;;5.50;99.90;;;;;;5073541;28;20063;-79
2023/03/29 04:00:20;;;;;;;9.73;4.88;;;5.60;99.90;;;;;;5073745;28;20053;-79
2023/03/29 04:02:47;;;;;;;7.97;4.70;;;5.60;99.90;;;;;;5073608;28;20044;-79
2023/03/29 04:05:13;;;;;;;9.55;4.97;;;5.60;99.90;;;;;;5073315;28;20418;-79
2023/03/29 04:07:40;;;;;;;9.15;5.30;;;5.50;99.90;;;;;;5080510;28;20056;-79
2023/03/29 04:10:09;;;;;;;9.13;5.00;;;5.60;99.90;;;;;;5076780;28;20052;-79
2023/03/29 04:12:35;;;;;;;8.82;5.05;;;5.60;99.90;;;;;;5077060;28;20130;-79
2023/03/29 04:15:02;;;;;;;10.40;5.35;;;5.60;99.90;;;;;;5076719;28;20142;-79
2023/03/29 04:17:28;;;;;;;9.18;4.93;;;5.60;99.90;;;;;;5076788;28;20052;-79
2023/03/29 04:19:54;;;;;;;8.77;4.80;;;5.60;99.90;;;;;;5076714;28;20047;-79
2023/03/29 04:22:20;;;;;;;8.35;5.75;;;5.60;99.90;;;;;;5076673;28;20430;-79
2023/03/29 04:24:45;;;;;;;9.40;5.05;;;5.60;99.90;;;;;;5077115;28;20055;-79
2023/03/29 04:27:11;;;;;;;10.43;5.22;;;5.60;99.90;;;;;;5076644;28;20501;-79
2023/03/29 04:29:37;;;;;;;11.55;6.95;;;5.60;99.90;;;;;;5076523;28;20044;-79
2023/03/29 04:32:02;;;;;;;11.13;5.05;;;5.60;99.90;;;;;;5076587;28;20039;-79
2023/03/29 04:34:28;;;;;;;10.57;5.10;;;5.60;99.90;;;;;;5076357;28;20048;-79
2023/03/29 04:36:53;;;;;;;11.95;5.57;;;5.60;99.90;;;;;;5076591;28;20220;-79
2023/03/29 04:39:19;;;;;;;8.40;5.30;;;5.60;99.90;;;;;;5076289;28;20552;-79
2023/03/29 04:41:46;;;;;;;10.45;5.22;;;5.60;99.90;;;;;;5076149;28;20099;-79
2023/03/29 04:44:15;;;;;;;9.55;5.63;;;5.60;99.90;;;;;;5075545;28;20063;-79
2023/03/29 04:46:42;;;;;;;10.60;5.50;;;5.60;99.90;;;;;;5094358;28;20040;-79
2023/03/29 04:49:08;;;;;;;9.23;5.35;;;5.60;99.90;;;;;;5094412;28;20122;-79
2023/03/29 04:51:34;;;;;;;9.55;5.75;;;5.60;99.90;;;;;;5076417;28;20263;-78
2023/03/29 04:54:00;;;;;;;11.05;5.88;;;5.60;99.90;;;;;;5076105;28;20032;-79
2023/03/29 04:56:25;;;;;;;10.80;6.40;;;5.60;99.90;;;;;;5076038;28;20040;-78
2023/03/29 04:58:51;;;;;;;9.23;5.43;;;5.60;99.90;;;;;;5076084;28;20036;-78
2023/03/29 05:01:17;;;;;;;12.27;5.78;;;5.60;99.90;;;;;;5075996;28;20093;-78
2023/03/29 05:03:42;;;;;;;11.68;6.60;;;5.60;99.90;;;;;;5076582;28;20097;-78
2023/03/29 05:06:10;;;;;;;9.48;5.65;;;5.60;99.90;;;;;;5075901;28;20470;-78
2023/03/29 05:08:39;;;;;;;11.20;6.05;;;5.60;99.90;;;;;;5075673;28;20064;-79
2023/03/29 05:11:07;;;;;;;11.93;6.18;;;5.60;99.90;;;;;;5076170;28;20044;-78
2023/03/29 05:13:33;;;;;;;10.10;6.18;;;5.60;99.90;;;;;;5075712;28;20048;-78
2023/03/29 05:15:59;;;;;;;10.25;6.25;;;5.60;99.90;;;;;;5075575;28;20048;-78
2023/03/29 05:18:25;;;;;;;11.88;6.32;;;5.60;99.90;;;;;;5075496;28;20051;-79
2023/03/29 05:20:52;;;;;;;11.43;5.82;;;5.60;99.90;;;;;;5075436;28;20050;-78
2023/03/29 05:23:19;;;;;;;15.50;6.32;;;5.60;99.90;;;;;;5075474;28;20044;-79
2023/03/29 05:25:47;;;;;;;10.93;6.65;;;5.70;99.90;;;;;;5075884;28;20147;-79
2023/03/29 05:28:14;;;;;;;13.63;6.13;;;5.60;99.90;;;;;;5075520;28;20079;-79
2023/03/29 05:30:40;;;;;;;11.88;6.63;;;5.70;99.90;;;;;;5075112;28;20495;-79
2023/03/29 05:33:06;;;;;;;11.32;6.53;;;5.70;99.90;;;;;;5075263;28;20057;-79
2023/03/29 05:35:32;;;;;;;12.52;6.80;;;5.70;99.90;;;;;;5075619;28;20527;-79
2023/03/29 05:37:59;;;;;;;11.05;5.97;;;5.70;99.90;;;;;;5075262;28;20387;-79
2023/03/29 05:40:25;;;;;;;16.83;7.47;;;5.70;99.90;;;;;;5075399;28;20044;-79
2023/03/29 05:42:51;;;;;;;12.95;7.32;;;5.80;99.90;;;;;;5093361;28;20051;-79
2023/03/29 05:45:18;;;;;;;11.77;6.80;;;5.80;99.90;;;;;;5075342;28;20051;-79
2023/03/29 05:47:43;;;;;;;13.23;7.60;;;5.80;99.90;;;;;;5075538;28;20130;-79
2023/03/29 05:50:10;;;;;;;12.55;7.22;;;5.80;99.90;;;;;;5093329;28;20463;-79
2023/03/29 05:52:37;;;;;;;13.50;7.40;;;5.80;99.90;;;;;;5075290;28;20048;-79
2023/03/29 05:55:04;;;;;;;14.30;8.02;;;5.90;99.90;;;;;;5075425;28;20052;-79
2023/03/29 05:57:35;;;;;;;11.40;7.43;;;5.80;99.90;;;;;;5079325;28;20114;-79
2023/03/29 06:00:04;;;;;;;11.30;7.10;;;5.90;99.90;;;;;;5079254;28;20083;-80
2023/03/29 06:02:30;;;;;;;13.73;7.97;;;5.90;99.90;;;;;;5079231;28;20402;-79
2023/03/29 06:04:56;;;;;;;11.80;8.00;;;5.90;99.90;;;;;;5079107;28;20055;-79
2023/03/29 06:07:24;;;;;;;13.88;8.23;;;5.90;99.90;;;;;;5078852;28;20087;-79
2023/03/29 06:09:54;;;;;;;15.73;8.45;;;5.90;99.90;;;;;;5078922;28;20075;-79
2023/03/29 06:12:20;;;;;;;12.57;7.90;;;5.90;99.90;;;;;;5078962;28;20378;-79
2023/03/29 06:14:52;;;;;;;14.95;9.10;;;5.90;99.90;;;;;;5097365;28;20097;-79
2023/03/29 06:17:17;;;;;;;14.02;8.23;;;6.00;99.90;;;;;;5078890;28;20114;-79
2023/03/29 06:19:43;;;;;;;15.43;9.00;;;6.00;99.90;;;;;;5078946;28;20037;-79
2023/03/29 06:22:09;;;;;;;17.35;8.65;;;6.00;99.90;;;;;;5096889;28;20048;-79
2023/03/29 06:27:00;;;;;;;14.63;10.02;;;6.10;99.90;;;;;;5204406;22;20078;-79
2023/03/29 06:29:35;;;;;;;17.00;9.65;;;6.10;99.90;;;;;;5078512;28;20491;-79
2023/03/29 06:32:00;;;;;;;16.92;9.85;;;6.10;99.90;;;;;;5078480;28;20047;-79
2023/03/29 06:34:26;;;;;;;17.70;10.40;;;6.10;99.90;;;;;;5078586;28;20047;-79
2023/03/29 06:36:53;;;;;;;16.25;9.57;;;6.10;99.90;;;;;;5078451;28;20040;-79
2023/03/29 06:39:19;;;;;;;19.67;12.18;;;6.10;99.90;;;;;;5078417;28;20051;-79
2023/03/29 06:41:45;;;;;;;19.17;10.65;;;6.10;99.90;;;;;;5096831;28;20073;-79
2023/03/29 06:44:10;;;;;;;16.77;9.73;;;6.20;99.90;;;;;;5078738;28;20040;-79
2023/03/29 06:46:36;;;;;;;19.30;10.68;;;6.30;99.90;;;;;;5078610;28;20040;-79
2023/03/29 06:49:02;;;;;;;17.70;11.80;;;6.20;99.90;;;;;;5078254;28;20487;-79
2023/03/29 06:51:28;;;;;;;19.30;11.35;;;6.30;99.90;;;;;;5078673;28;20043;-80
2023/03/29 06:53:53;;;;;;;17.80;9.95;;;6.30;99.90;;;;;;5078515;28;20052;-80
2023/03/29 06:56:19;;;;;;;17.95;11.50;;;6.40;99.90;;;;;;5078135;28;20376;-81
2023/03/29 06:58:46;;;;;;;18.25;10.27;;;6.40;99.90;;;;;;5078124;28;20040;-81
2023/03/29 07:01:12;;;;;;;21.13;10.98;;;6.50;99.90;;;;;;5078118;28;20119;-81
2023/03/29 07:03:39;;;;;;;18.85;11.73;;;6.50;99.90;;;;;;5078334;28;20047;-81
2023/03/29 07:06:08;;;;;;;19.70;10.70;;;6.50;99.90;;;;;;5077924;28;20510;-81
2023/03/29 07:08:51;;;;;;;17.77;11.93;;;6.60;99.90;;;;;;5075523;28;20048;-80
2023/03/29 07:11:17;;;;;;;16.55;11.38;;;6.60;99.90;;;;;;5096158;28;20047;-80
2023/03/29 07:14:05;;;;;;;15.63;10.35;;;6.70;99.90;;;;;;5095669;28;20504;-82
2023/03/29 07:20:13;;;;;;;15.55;9.77;;;6.70;99.90;;;;;;5095682;28;20035;-81
2023/03/29 07:23:18;;;;;;;16.05;11.20;;;6.80;99.90;;;;;;5094388;28;20109;-82
2023/03/29 07:25:53;;;;;;;19.00;11.02;;;6.80;99.90;;;;;;5077311;28;20092;-83
2023/03/29 07:28:28;;;;;;;19.35;10.73;;;6.80;99.90;;;;;;5077689;28;20124;-82
2023/03/29 07:31:43;;;;;;;;;;;;;;;;;;;;;
2023/03/29 07:44:36;;;;;;;18.13;10.63;;;7.00;99.90;;;;;;5077240;28;20127;-87
2023/03/29 07:47:03;;;;;;;18.08;11.07;;;7.00;99.90;;;;;;5076986;28;20055;-86
2023/03/29 07:49:28;;;;;;;17.33;10.10;;;7.10;99.90;;;;;;5076920;28;20044;-86
2023/03/29 07:51:57;;;;;;;18.08;11.80;;;7.10;99.90;;;;;;5076832;28;20055;-86
2023/03/29 07:54:25;;;;;;;19.80;11.02;;;7.10;99.90;;;;;;5077104;28;20555;-82
2023/03/29 07:56:51;;;;;;;17.33;10.52;;;7.30;99.90;;;;;;5076802;28;20086;-80
2023/03/29 07:59:20;;;;;;;16.70;10.15;;;7.30;99.90;;;;;;5077016;28;20173;-82
2023/03/29 08:01:46;;;;;;;19.50;10.98;;;7.30;99.90;;;;;;5076824;28;20040;-78
2023/03/29 08:04:20;;;;;;;19.67;11.68;;;7.40;99.90;;;;;;5076988;28;20373;-79
2023/03/29 08:06:46;;;;;;;19.38;11.30;;;7.40;99.90;;;;;;5076514;28;20047;-87
2023/03/29 08:09:27;;;;;;;19.15;11.07;;;7.50;99.90;;;;;;5076926;28;20044;-83
2023/03/29 08:11:52;;;;;;;17.15;10.65;;;7.60;99.90;;;;;;5076785;28;20059;-83
2023/03/29 08:14:20;;;;;;;20.13;10.77;;;7.60;99.90;;;;;;5076802;28;20483;-82
2023/03/29 08:16:58;;;;;;;15.85;9.82;;;7.60;99.90;;;;;;5076572;28;20041;-84
2023/03/29 08:19:24;;;;;;;20.13;11.15;;;7.60;99.90;;;;;;5076235;28;20051;-83
2023/03/29 08:21:50;;;;;;;18.70;11.02;;;7.60;99.90;;;;;;5076187;28;20070;-84
2023/03/29 08:24:19;;;;;;;20.95;11.35;;;7.70;99.90;;;;;;5076372;28;20086;-83
2023/03/29 08:26:48;;;;;;;19.38;11.20;;;7.70;99.90;;;;;;5076811;28;20499;-83
2023/03/29 08:29:15;;;;;;;22.67;11.93;;;7.80;99.90;;;;;;5076530;28;20161;-84
2023/03/29 08:31:41;;;;;;;21.40;10.88;;;7.90;99.90;;;;;;5076028;28;20048;-83
2023/03/29 08:34:07;;;;;;;19.02;11.57;;;8.00;99.90;;;;;;5076400;28;20055;-83
2023/03/29 08:36:33;;;;;;;19.25;11.30;;;8.00;99.90;;;;;;5076239;28;20075;-83
2023/03/29 08:39:00;;;;;;;22.90;10.88;;;8.00;99.90;;;;;;5076003;28;20437;-83
2023/03/29 08:42:17;;;;;;;17.80;11.43;;;8.10;99.90;;;;;;5051823;28;20049;-85
2023/03/29 08:45:02;;;;;;;17.13;10.82;;;8.20;99.90;;;;;;5045940;28;20499;-84
2023/03/29 08:47:57;;;;;;;23.05;10.88;;;8.20;99.90;;;;;;5052430;28;20048;-86
2023/03/29 08:50:35;;;;;;;22.98;11.85;;;8.30;99.90;;;;;;5052569;28;20053;-84
2023/03/29 08:53:26;;;;;;;17.77;10.48;;;8.40;99.90;;;;;;5052129;28;20049;-83
2023/03/29 08:55:56;;;;;;;19.40;10.88;;;8.40;99.90;;;;;;5053549;28;20056;-81
2023/03/29 08:58:27;;;;;;;22.42;11.55;;;8.40;99.90;;;;;;5053409;28;20049;-83
2023/03/29 09:00:58;;;;;;;22.20;12.10;;;8.50;99.90;;;;;;5052354;28;20052;-83
2023/03/29 09:03:39;;;;;;;21.95;12.68;;;8.50;99.90;;;;;;5052444;28;20127;-83
2023/03/29 09:06:07;;;;;;;18.92;12.00;;;8.60;99.90;;;;;;5052396;28;20519;-83
2023/03/29 09:08:44;;;;;;;25.67;13.38;;;8.70;99.90;;;;;;5052011;28;20055;-84
2023/03/29 09:11:36;;;;;;;27.05;12.57;;;8.70;99.90;;;;;;5051959;28;20515;-84
2023/03/29 09:14:30;;;;;;;20.00;12.13;;;8.80;99.90;;;;;;5051873;28;20044;-82
2023/03/29 09:17:07;;;;;;;22.35;12.73;;;8.80;99.90;;;;;;5052381;28;20508;-84
2023/03/29 09:20:05;;;;;;;27.05;12.40;;;8.90;99.90;;;;;;5051951;28;20051;-84
2023/03/29 09:22:47;;;;;;;23.15;12.00;;;9.00;99.90;;;;;;5051673;28;20049;-86
2023/03/29 09:25:31;;;;;;;27.80;13.35;;;9.00;99.90;;;;;;5052107;28;20527;-85
2023/03/29 09:28:05;;;;;;;27.05;11.73;;;9.10;99.90;;;;;;5051985;28;20488;-85
2023/03/29 09:30:48;;;;;;;26.35;12.80;;;9.10;99.90;;;;;;5051358;28;20045;-85
2023/03/29 09:33:28;;;;;;;26.13;12.85;;;9.20;99.90;;;;;;5051918;28;20128;-86
2023/03/29 09:36:16;;;;;;;29.95;13.20;;;9.20;99.90;;;;;;5052220;28;20382;-85
2023/03/29 09:38:47;;;;;;;29.25;14.02;;;9.30;99.90;;;;;;5051863;28;20051;-84
2023/03/29 09:41:32;;;;;;;24.55;13.55;;;9.30;99.90;;;;;;5068275;28;20052;-83
2023/03/29 09:44:04;;;;;;;30.75;13.23;;;9.30;99.90;;;;;;5071767;28;20134;-83
2023/03/29 09:46:40;;;;;;;32.08;14.52;;;9.40;99.90;;;;;;5072914;28;20083;-83
2023/03/29 09:49:16;;;;;;;22.80;12.82;;;9.40;99.90;;;;;;5071835;28;20043;-83
2023/03/29 09:51:45;;;;;;;27.15;13.27;;;9.50;99.90;;;;;;5072039;28;20044;-83
2023/03/29 09:54:11;;;;;;;27.15;14.18;;;9.50;99.90;;;;;;5071895;28;20492;-83
2023/03/29 09:56:38;;;;;;;29.77;14.05;;;9.60;99.90;;;;;;5071569;28;20040;-83
2023/03/29 09:59:04;;;;;;;29.45;13.52;;;9.60;99.90;;;;;;5072894;28;20044;-83
2023/03/29 10:04:10;;;;;;;30.48;14.95;;;9.70;99.90;;;;;;5161262;22;20057;-83
2023/03/29 10:07:24;;;;;;;26.77;13.43;;;9.60;99.90;;;;;;5054843;28;20063;-82
2023/03/29 10:09:51;;;;;;;25.30;13.65;;;9.60;99.90;;;;;;5054851;28;20052;-82
2023/03/29 10:12:18;;;;;;;30.95;15.80;;;9.70;99.90;;;;;;5054770;28;20452;-82
2023/03/29 10:15:00;;;;;;;36.80;15.93;;;9.70;99.90;;;;;;5060501;28;20052;-81
2023/03/29 10:17:28;;;;;;;27.10;14.40;;;9.70;99.90;;;;;;5054746;28;20301;-81
2023/03/29 10:23:58;;;;;;;30.58;15.32;;;9.70;99.90;;;;;;5072644;28;20048;-82
2023/03/29 10:26:31;;;;;;;36.53;16.50;;;9.80;99.90;;;;;;5054735;28;20049;-83
2023/03/29 10:29:11;;;;;;;33.17;16.42;;;9.90;99.90;;;;;;5049847;28;20113;-84
2023/03/29 10:31:40;;;;;;;31.70;15.20;;;9.80;99.90;;;;;;5048573;28;20052;-86
2023/03/29 10:34:07;;;;;;;35.10;16.38;;;9.90;99.90;;;;;;5036442;28;20514;-83
2023/03/29 10:37:00;;;;;;;32.60;16.55;;;10.00;99.90;;;;;;4967310;28;20122;-85
2023/03/29 10:39:31;;;;;;;26.10;15.02;;;10.10;99.90;;;;;;5024478;28;20512;-89
2023/03/29 10:41:58;;;;;;;32.40;15.85;;;10.20;99.90;;;;;;5031667;28;20408;-90
2023/03/29 10:44:35;;;;;;;31.20;16.80;;;10.20;99.90;;;;;;5049679;28;20040;-90
2023/03/29 10:47:13;;;;;;;31.88;16.67;;;10.30;99.90;;;;;;5053883;28;20079;-90
2023/03/29 10:49:45;;;;;;;33.58;17.48;;;10.30;99.90;;;;;;5071659;28;20049;-90
2023/03/29 10:52:13;;;;;;;32.97;17.23;;;10.40;99.90;;;;;;5061067;28;20037;-88
2023/03/29 10:54:39;;;;;;;30.33;17.52;;;10.50;99.90;;;;;;5051289;28;20131;-86
2023/03/29 10:57:09;;;;;;;32.35;18.23;;;10.50;99.90;;;;;;5053419;28;20139;-81
2023/03/29 10:59:53;;;;;;;38.33;18.52;;;10.60;99.90;;;;;;5053310;28;20051;-87
2023/03/29 11:02:52;;;;;;;35.50;17.63;;;10.70;99.90;;;;;;5053747;28;20048;-89
2023/03/29 11:05:23;;;;;;;34.55;17.88;;;10.70;99.90;;;;;;5053117;28;20048;-82
2023/03/29 11:07:59;;;;;;;30.58;16.85;;;10.80;99.90;;;;;;5070881;28;20059;-82
2023/03/29 11:10:40;;;;;;;38.45;18.65;;;10.80;99.90;;;;;;5053689;28;20047;-81
2023/03/29 11:13:34;;;;;;;32.33;16.80;;;10.80;99.90;;;;;;5070506;28;20048;-80
2023/03/29 11:16:24;;;;;;;33.67;17.88;;;11.00;99.90;;;;;;5071926;28;20052;-80
2023/03/29 11:19:09;;;;;;;33.38;18.35;;;11.10;99.90;;;;;;5072145;28;20045;-83
2023/03/29 11:21:45;;;;;;;35.65;18.08;;;11.10;99.90;;;;;;5075032;28;20434;-83
2023/03/29 11:24:24;;;;;;;43.10;19.77;;;11.10;99.90;;;;;;5037598;28;20048;-84
2023/03/29 11:27:11;;;;;;;32.20;18.65;;;11.20;99.90;;;;;;5056443;28;20479;-84
2023/03/29 11:29:59;;;;;;;30.27;18.70;;;11.30;99.90;;;;;;5054375;28;20087;-89
2023/03/29 11:32:36;;;;;;;32.38;18.90;;;11.30;99.90;;;;;;5039389;28;20049;-89
2023/03/29 11:35:11;;;;;;;31.70;18.35;;;11.30;99.90;;;;;;5055193;28;20052;-89
2023/03/29 11:38:15;;;;;;;33.05;20.60;;;11.40;99.90;;;;;;5057420;28;20395;-87
2023/03/29 11:41:12;;;;;;;33.08;20.83;;;11.40;99.90;;;;;;5055285;28;20053;-88
2023/03/29 11:43:42;;;;;;;38.63;20.80;;;11.40;99.90;;;;;;5036924;28;20094;-84
2023/03/29 11:46:22;;;;;;;33.78;20.38;;;11.40;99.90;;;;;;5054995;28;20045;-89
2023/03/29 11:49:14;;;;;;;39.05;21.55;;;11.50;99.90;;;;;;5059465;28;20091;-80
2023/03/29 11:52:00;;;;;;;33.20;20.33;;;11.50;99.90;;;;;;5063237;28;20045;-87
2023/03/29 11:55:02;;;;;;;38.45;22.13;;;11.50;99.90;;;;;;5048480;28;20048;-88
2023/03/29 11:57:36;;;;;;;38.67;21.00;;;11.60;99.90;;;;;;5030188;28;20063;-87
2023/03/29 12:00:08;;;;;;;42.90;22.95;;;11.70;99.90;;;;;;5049497;28;20472;-87
2023/03/29 12:02:49;;;;;;;40.40;22.33;;;11.60;99.90;;;;;;5036735;28;20063;-79
2023/03/29 12:05:27;;;;;;;41.55;22.42;;;11.70;99.90;;;;;;5036234;28;20060;-81
2023/03/29 12:08:17;;;;;;;35.67;21.25;;;11.70;99.90;;;;;;5036678;28;20063;-81
2023/03/29 12:11:06;;;;;;;45.17;22.52;;;11.90;99.90;;;;;;5036356;28;20109;-82
2023/03/29 12:13:43;;;;;;;43.25;22.95;;;11.80;99.90;;;;;;5040859;28;20057;-82
2023/03/29 12:16:31;;;;;;;41.25;21.58;;;12.00;99.90;;;;;;5036485;28;20434;-81
2023/03/29 12:19:03;;;;;;;41.63;22.48;;;12.00;99.90;;;;;;5036183;28;20052;-82
2023/03/29 12:21:31;;;;;;;42.90;22.23;;;12.10;99.90;;;;;;5036553;28;20124;-81
2023/03/29 12:23:57;;;;;;;38.70;22.52;;;12.20;99.90;;;;;;5054231;28;20400;-81
2023/03/29 12:26:41;;;;;;;37.85;21.88;;;12.20;99.90;;;;;;5072142;28;20044;-85
2023/03/29 12:29:12;;;;;;;41.60;22.73;;;12.30;99.90;;;;;;5074058;28;20048;-82
2023/03/29 12:32:15;;;;;;;40.85;22.20;;;12.30;99.90;;;;;;5056470;28;20053;-80
2023/03/29 12:34:53;;;;;;;41.42;23.08;;;12.40;99.90;;;;;;5056515;28;20058;-82
2023/03/29 12:37:18;;;;;;;39.80;22.08;;;12.40;99.90;;;;;;5056111;28;20040;-81
2023/03/29 12:39:47;;;;;;;40.03;22.02;;;12.40;99.90;;;;;;5072775;28;20070;-83
2023/03/29 12:42:21;;;;;;;38.13;22.02;;;12.40;99.90;;;;;;5055717;28;20052;-85
2023/03/29 12:44:57;;;;;;;44.25;23.23;;;12.40;99.90;;;;;;5055781;28;20051;-85
2023/03/29 12:47:30;;;;;;;37.10;22.58;;;12.40;99.90;;;;;;5056126;28;20093;-86
2023/03/29 12:49:58;;;;;;;42.55;22.17;;;12.50;99.90;;;;;;5056016;28;20048;-85
2023/03/29 12:52:35;;;;;;;35.33;22.00;;;12.40;99.90;;;;;;5055926;28;20048;-84
2023/03/29 12:55:19;;;;;;;37.97;21.98;;;12.50;99.90;;;;;;5055676;28;20119;-81
2023/03/29 12:58:01;;;;;;;39.85;21.90;;;12.50;99.90;;;;;;5055678;28;20076;-84
2023/03/29 13:00:35;;;;;;;40.80;23.58;;;12.50;99.90;;;;;;5073577;28;20043;-83
2023/03/29 13:03:20;;;;;;;36.42;21.25;;;12.50;99.90;;;;;;5055302;28;20047;-82
2023/03/29 13:05:50;;;;;;;44.90;22.90;;;12.50;99.90;;;;;;5053812;28;20048;-81
2023/03/29 13:08:32;;;;;;;38.80;21.95;;;12.40;99.90;;;;;;5055562;28;20060;-80
2023/03/29 13:10:58;;;;;;;44.67;23.65;;;12.40;99.90;;;;;;5073386;28;20040;-81
2023/03/29 13:13:39;;;;;;;44.63;23.77;;;12.40;99.90;;;;;;5055385;28;20036;-81
2023/03/29 13:16:17;;;;;;;40.95;24.75;;;12.30;99.90;;;;;;5055405;28;20099;-82
2023/03/29 13:19:09;;;;;;;43.67;24.33;;;12.30;99.90;;;;;;5055795;28;20048;-82
2023/03/29 13:21:42;;;;;;;39.38;21.77;;;12.20;99.90;;;;;;5055674;28;20037;-86
2023/03/29 13:24:30;;;;;;;39.17;23.85;;;12.10;99.90;;;;;;5055422;28;20048;-82
2023/03/29 13:27:03;;;;;;;40.72;23.13;;;12.10;99.90;;;;;;5055388;28;20044;-82
2023/03/29 13:30:09;;;;;;;40.85;22.67;;;12.10;99.90;;;;;;5055277;28;20487;-85
2023/03/29 13:32:45;;;;;;;42.55;23.55;;;12.20;99.90;;;;;;5036172;28;20559;-80
2023/03/29 13:35:14;;;;;;;38.67;23.38;;;12.20;99.90;;;;;;5055533;28;20036;-81
2023/03/29 13:37:52;;;;;;;42.97;24.52;;;12.30;99.90;;;;;;5054901;28;20059;-84